UPSVAC Airport Information Service

Gibraltar International Airport

ICAO: LXGB Country: Spain
Latitude: 36.1511 Longitude: -5.34972
Latest Arrival : UPSJUMP (EDDK-LXGB) Latest Departure : REP1032 (LXGB-EDDK)


WX CaptureLIVE
Data provided by noaa.gov | Fetched at 13:42:39

METAR : LXGB 251250Z 24014G25KT 9999 FEW015 SCT020 BKN050 17/14 Q1020

TAF : LXGB 281618Z 2818/2923 28018G28KT 9999 SCT035 PROB40 TEMPO 2818/2820 7000 -SHRA SCT020


Runway Data for LXGB
Data provided by openaviationdata.com

Runway ID Mag Var Hdg Length Elevation Surface ILS Freq ILS Id ILS Slope
9 -3 90° 5840 ft 10 ft Concrete -- -- --
27 -3 270° 5840 ft 10 ft Concrete -- -- --

Gibraltar International Airport, Spain
Use only for reference purposes



Not for navigational purposes.